Time;durP1;ratioP1;P1;durP2;ratioP2;P2;SDS_P1;SDS_P2;PMS_P1;PMS_P2;Temp;Humidity;BMP_temperature;BMP_pressure;BME280_temperature;BME280_humidity;BME280_pressure;Samples;Min_cycle;Max_cycle;Signal;HPM_P1;HPM_P2
2022/04/21 00:01:08;;;;;;;3.63;3.33;;;;;;;;;;5055073;28;20285;-81
2022/04/21 00:03:36;;;;;;;3.50;3.30;;;;;;;;;;5054707;28;20312;-80
2022/04/21 00:06:03;;;;;;;3.70;3.40;;;;;;;;;;5054655;28;20197;-81
2022/04/21 00:08:30;;;;;;;4.07;3.77;;;;;;;;;;5055133;28;20636;-81
2022/04/21 00:10:59;;;;;;;6.43;5.83;;;;;;;;;;5054390;28;20662;-80
2022/04/21 00:13:26;;;;;;;5.60;5.10;;;;;;;;;;5054703;28;20226;-81
2022/04/21 00:15:53;;;;;;;4.60;4.20;;;;;;;;;;5054790;28;20280;-81
2022/04/21 00:18:21;;;;;;;3.73;3.43;;;;;;;;;;5054991;28;20233;-81
2022/04/21 00:20:48;;;;;;;4.07;3.77;;;;;;;;;;5054386;28;20741;-81
2022/04/21 00:23:26;;;;;;;4.87;4.43;;;;;;;;;;5054369;28;20743;-81
2022/04/21 00:25:54;;;;;;;4.03;3.73;;;;;;;;;;5054356;28;20186;-81
2022/04/21 00:28:29;;;;;;;4.03;3.73;;;;;;;;;;5054430;28;20728;-81
2022/04/21 00:30:56;;;;;;;4.20;3.90;;;;;;;;;;5054552;28;20209;-81
2022/04/21 00:33:24;;;;;;;4.10;3.70;;;;;;;;;;5054466;28;20312;-81
2022/04/21 00:35:51;;;;;;;3.93;3.63;;;;;;;;;;5054131;28;20284;-81
2022/04/21 00:38:18;;;;;;;4.10;3.70;;;;;;;;;;5054060;28;20237;-81
2022/04/21 00:40:45;;;;;;;4.33;3.97;;;;;;;;;;5053876;28;20708;-81
2022/04/21 00:43:12;;;;;;;4.17;3.87;;;;;;;;;;5054186;28;20244;-81
2022/04/21 00:45:41;;;;;;;3.83;3.53;;;;;;;;;;5054284;28;20197;-81
2022/04/21 00:48:09;;;;;;;4.30;4.00;;;;;;;;;;5053832;28;20285;-81
2022/04/21 00:50:51;;;;;;;4.77;4.37;;;;;;;;;;5054216;28;20280;-81
2022/04/21 00:53:19;;;;;;;5.23;4.53;;;;;;;;;;5054258;28;20224;-81
2022/04/21 00:55:46;;;;;;;4.67;4.37;;;;;;;;;;5053481;28;20212;-81
2022/04/21 00:58:14;;;;;;;3.93;3.63;;;;;;;;;;5054179;28;20385;-82
2022/04/21 01:00:42;;;;;;;4.43;4.03;;;;;;;;;;5053869;28;20190;-82
2022/04/21 01:03:08;;;;;;;4.00;3.70;;;;;;;;;;5053456;28;20235;-82
2022/04/21 01:05:51;;;;;;;4.77;4.27;;;;;;;;;;5054022;28;20206;-82
2022/04/21 01:08:18;;;;;;;4.33;3.93;;;;;;;;;;5053627;28;20281;-82
2022/04/21 01:10:45;;;;;;;4.30;3.90;;;;;;;;;;5053676;28;20197;-81
2022/04/21 01:13:13;;;;;;;3.63;3.33;;;;;;;;;;5053513;28;20284;-82
2022/04/21 01:15:42;;;;;;;3.77;3.47;;;;;;;;;;5053230;28;20285;-81
2022/04/21 01:18:10;;;;;;;4.13;3.77;;;;;;;;;;5053279;28;20280;-81
2022/04/21 01:20:38;;;;;;;4.90;4.50;;;;;;;;;;5053050;28;20199;-81
2022/04/21 01:23:09;;;;;;;3.77;3.47;;;;;;;;;;5053535;28;20186;-82
2022/04/21 01:25:38;;;;;;;4.53;4.20;;;;;;;;;;5053392;28;20584;-81
2022/04/21 01:28:06;;;;;;;4.03;3.73;;;;;;;;;;5053406;28;20229;-81
2022/04/21 01:30:39;;;;;;;6.43;5.83;;;;;;;;;;5053161;28;20205;-82
2022/04/21 01:33:06;;;;;;;6.33;5.83;;;;;;;;;;5052948;28;20305;-81
2022/04/21 01:35:34;;;;;;;8.07;6.10;;;;;;;;;;5053259;28;20222;-81
2022/04/21 01:43:38;;;;;;;4.23;3.83;;;;;;;;;;5053077;28;20182;-81
2022/04/21 01:46:06;;;;;;;4.77;4.30;;;;;;;;;;5053062;28;20566;-81
2022/04/21 01:48:33;;;;;;;4.33;3.80;;;;;;;;;;5052983;28;20292;-81
2022/04/21 01:51:00;;;;;;;3.63;3.17;;;;;;;;;;5052878;28;20733;-81
2022/04/21 01:53:35;;;;;;;3.97;3.67;;;;;;;;;;5051922;28;20201;-81
2022/04/21 01:56:03;;;;;;;4.33;4.03;;;;;;;;;;5052618;28;20284;-81
2022/04/21 01:58:30;;;;;;;4.23;3.93;;;;;;;;;;5052743;28;20204;-81
2022/04/21 02:00:57;;;;;;;4.27;3.97;;;;;;;;;;5052653;28;20281;-81
2022/04/21 02:03:30;;;;;;;4.80;4.40;;;;;;;;;;5052254;28;20351;-81
2022/04/21 02:05:57;;;;;;;4.13;3.83;;;;;;;;;;5052481;28;20292;-82
2022/04/21 02:08:28;;;;;;;5.90;4.03;;;;;;;;;;5052927;28;20198;-81
2022/04/21 02:10:56;;;;;;;4.07;3.77;;;;;;;;;;5052110;28;20197;-81
2022/04/21 02:13:26;;;;;;;4.30;3.93;;;;;;;;;;5052801;28;20233;-81
2022/04/21 02:16:06;;;;;;;4.37;4.07;;;;;;;;;;5052541;28;20240;-81
2022/04/21 02:18:33;;;;;;;3.83;3.53;;;;;;;;;;5052715;28;20228;-81
2022/04/21 02:21:07;;;;;;;4.70;4.33;;;;;;;;;;5051875;28;20202;-81
2022/04/21 02:23:34;;;;;;;6.27;5.67;;;;;;;;;;5052355;28;20229;-81
2022/04/21 02:26:02;;;;;;;6.23;5.70;;;;;;;;;;5052471;28;20640;-81
2022/04/21 02:28:30;;;;;;;10.03;5.93;;;;;;;;;;5052246;28;20318;-81
2022/04/21 02:31:06;;;;;;;6.10;4.97;;;;;;;;;;5052234;28;20228;-81
2022/04/21 02:33:33;;;;;;;5.30;4.80;;;;;;;;;;5051980;28;20288;-81
2022/04/21 02:36:00;;;;;;;5.80;4.23;;;;;;;;;;5051962;28;20194;-81
2022/04/21 02:38:30;;;;;;;4.20;3.90;;;;;;;;;;5052122;28;20205;-82
2022/04/21 02:40:58;;;;;;;4.97;4.57;;;;;;;;;;5051983;28;20668;-81
2022/04/21 02:43:29;;;;;;;4.27;3.87;;;;;;;;;;5052306;28;20201;-81
2022/04/21 02:45:59;;;;;;;4.43;4.13;;;;;;;;;;5051791;28;20284;-81
2022/04/21 02:48:30;;;;;;;5.77;5.37;;;;;;;;;;5052004;28;20690;-81
2022/04/21 02:50:57;;;;;;;9.73;8.83;;;;;;;;;;5051579;28;20244;-81
2022/04/21 02:58:51;;;;;;;4.87;4.47;;;;;;;;;;5052009;28;20758;-81
2022/04/21 03:01:19;;;;;;;5.30;4.90;;;;;;;;;;5051493;28;20296;-81
2022/04/21 03:03:46;;;;;;;4.50;4.10;;;;;;;;;;5051814;28;20178;-81
2022/04/21 03:06:13;;;;;;;4.07;3.77;;;;;;;;;;5050951;28;20201;-81
2022/04/21 03:08:40;;;;;;;4.10;3.80;;;;;;;;;;5051448;28;20204;-81
2022/04/21 03:11:07;;;;;;;4.10;3.80;;;;;;;;;;5051807;28;20232;-81
2022/04/21 03:13:35;;;;;;;4.30;3.50;;;;;;;;;;5051665;28;20294;-81
2022/04/21 03:16:09;;;;;;;7.87;6.90;;;;;;;;;;5051439;28;20237;-81
2022/04/21 03:18:37;;;;;;;8.10;6.97;;;;;;;;;;5051697;28;20239;-81
2022/04/21 03:26:36;;;;;;;7.30;6.60;;;;;;;;;;5051979;28;20181;-80
2022/04/21 03:29:03;;;;;;;6.33;5.83;;;;;;;;;;5051138;28;20255;-81
2022/04/21 03:31:35;;;;;;;6.23;5.63;;;;;;;;;;5051590;28;20233;-81
2022/04/21 03:34:05;;;;;;;6.37;5.70;;;;;;;;;;5051550;28;20295;-81
2022/04/21 03:36:32;;;;;;;4.73;4.27;;;;;;;;;;5051856;28;20544;-81
2022/04/21 03:38:59;;;;;;;4.47;4.07;;;;;;;;;;5051378;28;20293;-81
2022/04/21 03:41:29;;;;;;;4.07;3.77;;;;;;;;;;5051399;28;20761;-81
2022/04/21 03:43:58;;;;;;;6.17;5.67;;;;;;;;;;5051248;28;20198;-81
2022/04/21 03:46:25;;;;;;;13.17;11.87;;;;;;;;;;5051549;28;20275;-82
2022/04/21 03:48:53;;;;;;;9.87;8.93;;;;;;;;;;5051264;28;20236;-81
2022/04/21 03:51:21;;;;;;;6.80;6.10;;;;;;;;;;5051576;28;20228;-81
2022/04/21 03:53:48;;;;;;;3.47;3.27;;;;;;;;;;5051334;28;20721;-81
2022/04/21 03:56:15;;;;;;;3.97;3.63;;;;;;;;;;5051082;28;20724;-81
2022/04/21 03:58:42;;;;;;;5.23;4.83;;;;;;;;;;5051211;28;20198;-81
2022/04/21 04:01:10;;;;;;;14.10;11.67;;;;;;;;;;5050933;28;20198;-81
2022/04/21 04:03:40;;;;;;;8.93;8.07;;;;;;;;;;5051021;28;20229;-82
2022/04/21 04:10:51;;;;;;;8.43;7.50;;;;;;;;;;5051071;28;20193;-81
2022/04/21 04:11:41;;;;;;;8.03;7.23;;;;;;;;;;5051722;28;20259;-81
2022/04/21 04:14:08;;;;;;;8.53;7.27;;;;;;;;;;5050866;28;20244;-81
2022/04/21 04:16:35;;;;;;;8.70;7.57;;;;;;;;;;5052573;28;20288;-82
2022/04/21 04:19:03;;;;;;;8.10;7.30;;;;;;;;;;5054562;28;20249;-81
2022/04/21 04:21:32;;;;;;;8.07;6.80;;;;;;;;;;5054635;28;20194;-81
2022/04/21 04:23:59;;;;;;;8.13;7.40;;;;;;;;;;5054421;28;20208;-81
2022/04/21 04:26:27;;;;;;;8.63;7.60;;;;;;;;;;5054279;28;20237;-82
2022/04/21 04:28:54;;;;;;;9.03;8.13;;;;;;;;;;5054695;28;20193;-81
2022/04/21 04:31:21;;;;;;;7.63;6.87;;;;;;;;;;5054667;28;20202;-81
2022/04/21 04:33:48;;;;;;;6.73;6.13;;;;;;;;;;5054274;28;20288;-81
2022/04/21 04:36:16;;;;;;;6.77;5.80;;;;;;;;;;5053979;28;20317;-82
2022/04/21 04:38:45;;;;;;;5.70;5.20;;;;;;;;;;5054564;28;20281;-81
2022/04/21 04:43:57;;;;;;;4.47;4.10;;;;;;;;;;5054264;28;20221;-81
2022/04/21 04:46:37;;;;;;;4.40;4.00;;;;;;;;;;5053865;28;20297;-82
2022/04/21 04:49:06;;;;;;;5.43;3.80;;;;;;;;;;5053906;28;20190;-81
2022/04/21 04:51:34;;;;;;;3.97;3.63;;;;;;;;;;5054024;28;20201;-81
2022/04/21 04:54:06;;;;;;;4.20;3.80;;;;;;;;;;5054450;28;20305;-82
2022/04/21 04:56:40;;;;;;;4.30;3.83;;;;;;;;;;5053811;28;20569;-82
2022/04/21 04:59:07;;;;;;;6.00;4.47;;;;;;;;;;5053784;28;20193;-82
2022/04/21 05:01:40;;;;;;;5.37;4.60;;;;;;;;;;5053781;28;20241;-82
2022/04/21 05:04:08;;;;;;;4.73;4.23;;;;;;;;;;5052912;28;20277;-81
2022/04/21 05:06:36;;;;;;;4.53;4.23;;;;;;;;;;5052536;28;20198;-81
2022/04/21 05:09:06;;;;;;;5.20;4.70;;;;;;;;;;5052725;28;20194;-81
2022/04/21 05:11:33;;;;;;;6.67;5.97;;;;;;;;;;5052969;28;20201;-81
2022/04/21 05:14:01;;;;;;;5.70;5.23;;;;;;;;;;5052580;28;20205;-80
2022/04/21 05:16:31;;;;;;;9.10;7.03;;;;;;;;;;5052237;28;20603;-80
2022/04/21 05:18:59;;;;;;;8.17;7.33;;;;;;;;;;5052342;28;20201;-80
2022/04/21 05:21:27;;;;;;;5.77;5.27;;;;;;;;;;5052440;28;20231;-80
2022/04/21 05:23:57;;;;;;;5.70;5.10;;;;;;;;;;5052301;28;20197;-80
2022/04/21 05:26:43;;;;;;;5.63;5.13;;;;;;;;;;5052873;28;20186;-80
2022/04/21 05:31:58;;;;;;;10.80;5.20;;;;;;;;;;5051555;28;20178;-82
2022/04/21 05:34:33;;;;;;;4.57;4.20;;;;;;;;;;5052172;28;20193;-81
2022/04/21 05:37:01;;;;;;;4.27;3.97;;;;;;;;;;5052309;28;20216;-81
2022/04/21 05:39:28;;;;;;;5.10;4.60;;;;;;;;;;5052114;28;20293;-80
2022/04/21 05:41:59;;;;;;;6.30;5.70;;;;;;;;;;5052141;28;20288;-81
2022/04/21 05:44:27;;;;;;;7.47;3.77;;;;;;;;;;5051984;28;20273;-80
2022/04/21 05:46:57;;;;;;;4.93;4.53;;;;;;;;;;5051888;28;20198;-81
2022/04/21 05:49:25;;;;;;;5.80;5.10;;;;;;;;;;5051926;28;20289;-81
2022/04/21 05:51:53;;;;;;;7.80;5.67;;;;;;;;;;5052486;28;20194;-81
2022/04/21 05:54:21;;;;;;;4.73;4.23;;;;;;;;;;5051671;28;20572;-81
2022/04/21 05:56:49;;;;;;;3.50;3.20;;;;;;;;;;5052264;28;20295;-81
2022/04/21 05:59:22;;;;;;;4.40;4.00;;;;;;;;;;5051489;28;20204;-81
2022/04/21 06:01:49;;;;;;;4.70;4.30;;;;;;;;;;5044484;28;195962;-81
2022/04/21 06:04:21;;;;;;;4.53;4.13;;;;;;;;;;5051759;28;20241;-81
2022/04/21 06:06:48;;;;;;;4.47;4.07;;;;;;;;;;5052478;28;20189;-81
2022/04/21 06:09:15;;;;;;;4.83;4.33;;;;;;;;;;5052670;28;20244;-81
2022/04/21 06:11:43;;;;;;;10.73;7.57;;;;;;;;;;5052485;28;20671;-81
2022/04/21 06:14:10;;;;;;;10.37;6.73;;;;;;;;;;5052346;28;20608;-81
2022/04/21 06:16:38;;;;;;;18.87;10.43;;;;;;;;;;5052318;28;20228;-81
2022/04/21 06:19:06;;;;;;;6.73;5.67;;;;;;;;;;5052189;28;20288;-80
2022/04/21 06:21:33;;;;;;;11.30;8.73;;;;;;;;;;5052635;28;20280;-81
2022/04/21 06:24:00;;;;;;;5.10;4.60;;;;;;;;;;5051852;28;20317;-81
2022/04/21 06:26:33;;;;;;;6.50;4.70;;;;;;;;;;5052656;28;20643;-81
2022/04/21 06:29:02;;;;;;;4.10;3.80;;;;;;;;;;5051909;28;20234;-80
2022/04/21 06:31:29;;;;;;;5.27;4.77;;;;;;;;;;5052152;28;20237;-81
2022/04/21 06:34:07;;;;;;;4.00;3.70;;;;;;;;;;5051671;28;20233;-81
2022/04/21 06:36:40;;;;;;;5.40;4.97;;;;;;;;;;5052022;28;20267;-81
2022/04/21 06:39:07;;;;;;;4.83;4.43;;;;;;;;;;5051530;28;20204;-81
2022/04/21 06:41:34;;;;;;;4.40;4.00;;;;;;;;;;5051966;28;20285;-81
2022/04/21 06:49:32;;;;;;;5.83;4.43;;;;;;;;;;5052065;28;20324;-82
2022/04/21 06:51:59;;;;;;;10.00;7.00;;;;;;;;;;5051890;28;20225;-82
2022/04/21 06:54:26;;;;;;;5.17;4.37;;;;;;;;;;5051435;28;20292;-81
2022/04/21 06:56:54;;;;;;;4.50;3.13;;;;;;;;;;5051925;28;20257;-82
2022/04/21 06:59:21;;;;;;;4.93;4.23;;;;;;;;;;5051961;28;20285;-82
2022/04/21 07:01:48;;;;;;;3.97;3.67;;;;;;;;;;5051619;28;20233;-82
2022/04/21 07:04:16;;;;;;;3.40;3.20;;;;;;;;;;5051428;28;20742;-82
2022/04/21 07:06:45;;;;;;;3.83;3.53;;;;;;;;;;5051757;28;20248;-82
2022/04/21 07:09:12;;;;;;;4.37;3.90;;;;;;;;;;5051659;28;20280;-82
2022/04/21 07:11:43;;;;;;;4.97;3.53;;;;;;;;;;5051448;28;20197;-82
2022/04/21 07:14:11;;;;;;;4.87;4.30;;;;;;;;;;5051597;28;20208;-82
2022/04/21 07:16:38;;;;;;;4.23;3.80;;;;;;;;;;5051569;28;20217;-82
2022/04/21 07:19:05;;;;;;;5.20;4.80;;;;;;;;;;5051437;28;20252;-82
2022/04/21 07:21:32;;;;;;;3.93;3.60;;;;;;;;;;5051291;28;20753;-82
2022/04/21 07:24:10;;;;;;;3.30;3.10;;;;;;;;;;5051324;28;20293;-82
2022/04/21 07:26:38;;;;;;;4.10;3.67;;;;;;;;;;5051436;28;20625;-82
2022/04/21 07:29:05;;;;;;;4.03;3.63;;;;;;;;;;5051677;28;20683;-82
2022/04/21 07:31:32;;;;;;;3.80;3.30;;;;;;;;;;5051329;28;20280;-82
2022/04/21 07:33:59;;;;;;;3.73;3.50;;;;;;;;;;5051433;28;20292;-82
2022/04/21 07:36:34;;;;;;;3.73;3.43;;;;;;;;;;5051381;28;20225;-82
2022/04/21 07:39:01;;;;;;;6.60;5.03;;;;;;;;;;5051259;28;20274;-82
2022/04/21 07:41:30;;;;;;;3.37;3.13;;;;;;;;;;5051226;28;20285;-82
2022/04/21 07:44:00;;;;;;;3.83;3.53;;;;;;;;;;5051307;28;20648;-82
2022/04/21 07:46:27;;;;;;;3.03;2.83;;;;;;;;;;5051122;28;20194;-82
2022/04/21 07:51:39;;;;;;;3.50;3.20;;;;;;;;;;5053184;28;20773;-83
2022/04/21 07:54:05;;;;;;;3.57;3.27;;;;;;;;;;5054982;28;20249;-82
2022/04/21 07:56:34;;;;;;;4.57;4.17;;;;;;;;;;5054902;28;20279;-82
2022/04/21 07:59:01;;;;;;;4.07;3.67;;;;;;;;;;5055426;28;20209;-82
2022/04/21 08:01:29;;;;;;;3.50;3.20;;;;;;;;;;5055231;28;20293;-82
2022/04/21 08:04:01;;;;;;;6.90;6.30;;;;;;;;;;5054944;28;20190;-83
2022/04/21 08:06:29;;;;;;;12.53;7.43;;;;;;;;;;5054698;28;20276;-82
2022/04/21 08:08:56;;;;;;;13.40;8.07;;;;;;;;;;5054708;28;20200;-82
2022/04/21 08:11:23;;;;;;;23.40;20.03;;;;;;;;;;5055142;28;20583;-82
2022/04/21 08:13:52;;;;;;;15.20;10.63;;;;;;;;;;5054587;28;20229;-82
2022/04/21 08:16:22;;;;;;;9.43;7.93;;;;;;;;;;5054564;28;20313;-83
2022/04/21 08:18:52;;;;;;;11.63;9.53;;;;;;;;;;5054821;28;20220;-82
2022/04/21 08:21:19;;;;;;;12.63;9.37;;;;;;;;;;5054686;28;20186;-82
2022/04/21 08:23:47;;;;;;;16.90;11.90;;;;;;;;;;5054353;28;20209;-82
2022/04/21 08:34:29;;;;;;;7.17;6.50;;;;;;;;;;5054245;28;20185;-82
2022/04/21 08:36:57;;;;;;;6.67;6.03;;;;;;;;;;5054611;28;20225;-82
2022/04/21 08:39:33;;;;;;;11.13;7.40;;;;;;;;;;5054202;28;20234;-82
2022/04/21 08:42:08;;;;;;;8.30;7.17;;;;;;;;;;5053933;28;20741;-82
2022/04/21 08:44:39;;;;;;;8.87;6.97;;;;;;;;;;5054568;28;20259;-82
2022/04/21 08:47:07;;;;;;;7.07;6.47;;;;;;;;;;5054909;28;20221;-82
2022/04/21 08:49:36;;;;;;;11.53;10.00;;;;;;;;;;5054266;28;20194;-82
2022/04/21 08:52:04;;;;;;;27.37;22.37;;;;;;;;;;5054145;28;20201;-82
2022/04/21 08:54:32;;;;;;;58.23;44.27;;;;;;;;;;5053837;28;20686;-82
2022/04/21 08:56:59;;;;;;;55.13;36.70;;;;;;;;;;5053760;28;20222;-82
2022/04/21 08:59:27;;;;;;;30.83;21.30;;;;;;;;;;5053911;28;20193;-82
2022/04/21 09:02:00;;;;;;;15.60;13.73;;;;;;;;;;5053865;28;20234;-82
2022/04/21 09:04:28;;;;;;;15.87;14.30;;;;;;;;;;5053732;28;20205;-82
2022/04/21 09:06:56;;;;;;;13.03;11.10;;;;;;;;;;5053805;28;20198;-83
2022/04/21 09:09:24;;;;;;;16.23;13.87;;;;;;;;;;5053545;28;20198;-82
2022/04/21 09:11:57;;;;;;;10.57;9.23;;;;;;;;;;5053457;28;20293;-82
2022/04/21 09:14:30;;;;;;;11.20;9.20;;;;;;;;;;5053437;28;20233;-82
2022/04/21 09:17:06;;;;;;;9.23;8.33;;;;;;;;;;5053506;28;20769;-82
2022/04/21 09:19:33;;;;;;;8.37;7.67;;;;;;;;;;5053346;28;20193;-82
2022/04/21 09:22:04;;;;;;;6.80;6.20;;;;;;;;;;5053350;28;20240;-82
2022/04/21 09:24:31;;;;;;;7.87;6.13;;;;;;;;;;5053654;28;20280;-82
2022/04/21 09:26:58;;;;;;;6.37;5.87;;;;;;;;;;5053430;28;20196;-82
2022/04/21 09:29:28;;;;;;;7.37;6.77;;;;;;;;;;5053234;28;20288;-82
2022/04/21 09:32:02;;;;;;;5.83;5.33;;;;;;;;;;5053089;28;20198;-82
2022/04/21 09:34:29;;;;;;;5.17;4.67;;;;;;;;;;5053031;28;20190;-82
2022/04/21 09:36:58;;;;;;;5.83;5.33;;;;;;;;;;5053425;28;20225;-82
2022/04/21 09:39:27;;;;;;;4.07;3.77;;;;;;;;;;5053351;28;20723;-82
2022/04/21 09:41:55;;;;;;;5.63;5.03;;;;;;;;;;5053219;28;20229;-82
2022/04/21 09:47:20;;;;;;;5.47;5.07;;;;;;;;;;5053238;28;20571;-82
2022/04/21 09:49:47;;;;;;;8.57;7.73;;;;;;;;;;5052797;28;20205;-82
2022/04/21 09:52:26;;;;;;;6.50;5.77;;;;;;;;;;5052764;28;20237;-82
2022/04/21 09:54:53;;;;;;;6.20;5.70;;;;;;;;;;5052759;28;20189;-82
2022/04/21 09:57:45;;;;;;;5.73;5.23;;;;;;;;;;5052824;28;20714;-82
2022/04/21 10:00:14;;;;;;;4.77;4.37;;;;;;;;;;5053386;28;20237;-82
2022/04/21 10:02:50;;;;;;;6.73;6.23;;;;;;;;;;5052268;28;20721;-82
2022/04/21 10:05:19;;;;;;;6.93;6.23;;;;;;;;;;5052392;28;20225;-82
2022/04/21 10:07:46;;;;;;;5.20;4.77;;;;;;;;;;5052972;28;20221;-83
2022/04/21 10:10:14;;;;;;;12.57;11.37;;;;;;;;;;5052410;28;20195;-82
2022/04/21 10:12:42;;;;;;;8.43;7.73;;;;;;;;;;5052688;28;20220;-81
2022/04/21 10:15:10;;;;;;;6.60;6.00;;;;;;;;;;5051818;28;20207;-82
2022/04/21 10:17:38;;;;;;;8.97;7.43;;;;;;;;;;5052687;28;20322;-82
2022/04/21 10:20:09;;;;;;;13.03;11.73;;;;;;;;;;5052033;28;20203;-82
2022/04/21 10:22:37;;;;;;;8.03;7.30;;;;;;;;;;5052439;28;20187;-82
2022/04/21 10:25:07;;;;;;;14.90;13.43;;;;;;;;;;5051898;28;20194;-82
2022/04/21 10:27:39;;;;;;;10.00;9.03;;;;;;;;;;5052614;28;20225;-82
2022/04/21 10:30:14;;;;;;;11.33;10.17;;;;;;;;;;5052294;28;20272;-81
2022/04/21 10:32:52;;;;;;;17.83;14.13;;;;;;;;;;5052197;28;20288;-82
2022/04/21 10:35:48;;;;;;;13.63;12.40;;;;;;;;;;5051895;28;20201;-82
2022/04/21 10:38:18;;;;;;;8.20;7.53;;;;;;;;;;5052124;28;20185;-82
2022/04/21 10:41:00;;;;;;;6.73;6.23;;;;;;;;;;5052434;28;20229;-82
2022/04/21 10:44:05;;;;;;;6.47;5.87;;;;;;;;;;5051698;28;20564;-82
2022/04/21 10:46:32;;;;;;;6.13;5.53;;;;;;;;;;5052014;28;20281;-83
2022/04/21 10:49:00;;;;;;;7.50;6.90;;;;;;;;;;5051753;28;20293;-81
2022/04/21 10:58:51;;;;;;;8.73;7.40;;;;;;;;;;5052022;28;20206;-82
2022/04/21 11:01:31;;;;;;;7.13;6.53;;;;;;;;;;5049105;28;20268;-82
2022/04/21 11:04:21;;;;;;;10.00;7.27;;;;;;;;;;5051715;28;20674;-82
2022/04/21 11:06:49;;;;;;;8.20;6.97;;;;;;;;;;5051730;28;20281;-82
2022/04/21 11:09:53;;;;;;;7.90;7.30;;;;;;;;;;5051499;28;20201;-83
2022/04/21 11:12:43;;;;;;;8.53;7.37;;;;;;;;;;5051934;28;20181;-83
2022/04/21 11:15:32;;;;;;;7.60;6.90;;;;;;;;;;5051279;28;20186;-82
2022/04/21 11:18:01;;;;;;;8.20;7.43;;;;;;;;;;5051564;28;20288;-83
2022/04/21 11:20:29;;;;;;;9.03;8.20;;;;;;;;;;5051766;28;20199;-83
2022/04/21 11:22:59;;;;;;;8.33;7.63;;;;;;;;;;5051850;28;20197;-82
2022/04/21 11:25:32;;;;;;;7.97;5.87;;;;;;;;;;5051427;28;20201;-82
2022/04/21 11:28:00;;;;;;;7.37;6.67;;;;;;;;;;5055527;28;20240;-83
2022/04/21 11:30:29;;;;;;;6.23;5.80;;;;;;;;;;5055554;28;20201;-83
2022/04/21 11:33:10;;;;;;;5.37;4.93;;;;;;;;;;5055459;28;20284;-83
2022/04/21 11:35:44;;;;;;;6.33;5.77;;;;;;;;;;5055509;28;20186;-83
2022/04/21 11:38:13;;;;;;;7.37;6.70;;;;;;;;;;5055400;28;20312;-83
2022/04/21 11:40:44;;;;;;;6.57;5.97;;;;;;;;;;5055634;28;20665;-83
2022/04/21 11:43:17;;;;;;;7.67;6.87;;;;;;;;;;5055272;28;20186;-83
2022/04/21 11:45:57;;;;;;;7.07;6.47;;;;;;;;;;5055218;28;20238;-83
2022/04/21 11:48:28;;;;;;;9.80;9.00;;;;;;;;;;5055124;28;20709;-82
2022/04/21 11:50:56;;;;;;;9.57;8.67;;;;;;;;;;5054889;28;20308;-83
2022/04/21 11:53:23;;;;;;;8.07;7.37;;;;;;;;;;5055273;28;20288;-83
2022/04/21 11:55:53;;;;;;;5.90;5.40;;;;;;;;;;5055264;28;20197;-83
2022/04/21 11:58:30;;;;;;;8.97;8.07;;;;;;;;;;5055087;28;20785;-83
2022/04/21 12:06:39;;;;;;;7.47;6.77;;;;;;;;;;5055197;28;20223;-83
2022/04/21 12:09:07;;;;;;;34.63;23.17;;;;;;;;;;5054785;28;20197;-83
2022/04/21 12:11:51;;;;;;;8.60;7.17;;;;;;;;;;5054650;28;20576;-83
2022/04/21 12:14:18;;;;;;;16.13;11.90;;;;;;;;;;5055162;28;20221;-83
2022/04/21 12:16:47;;;;;;;82.60;49.80;;;;;;;;;;5054712;28;20316;-83
2022/04/21 12:19:28;;;;;;;6.73;6.13;;;;;;;;;;5054188;28;20189;-83
2022/04/21 12:21:57;;;;;;;177.60;94.43;;;;;;;;;;5055046;28;20265;-83
2022/04/21 12:24:31;;;;;;;34.70;21.97;;;;;;;;;;5054731;28;20198;-83
2022/04/21 12:27:13;;;;;;;8.17;7.37;;;;;;;;;;5054663;28;20557;-83
2022/04/21 12:29:48;;;;;;;7.10;6.40;;;;;;;;;;5054464;28;20563;-83
2022/04/21 12:32:18;;;;;;;8.40;7.63;;;;;;;;;;5054772;28;20623;-83
2022/04/21 12:34:46;;;;;;;5.43;5.00;;;;;;;;;;5054559;28;20544;-83
2022/04/21 12:37:13;;;;;;;10.67;9.57;;;;;;;;;;5053772;28;20221;-83
2022/04/21 12:39:41;;;;;;;20.47;15.60;;;;;;;;;;5054075;28;20666;-83
2022/04/21 12:42:10;;;;;;;7.40;6.70;;;;;;;;;;5054575;28;20205;-83
2022/04/21 12:44:38;;;;;;;6.57;5.93;;;;;;;;;;5054051;28;20284;-83
2022/04/21 12:47:07;;;;;;;7.53;6.93;;;;;;;;;;5054181;28;20193;-83
2022/04/21 12:49:53;;;;;;;5.63;5.13;;;;;;;;;;5052954;28;20206;-83
2022/04/21 12:52:35;;;;;;;6.40;5.90;;;;;;;;;;5054402;28;20222;-83
2022/04/21 12:55:04;;;;;;;8.40;6.70;;;;;;;;;;5054205;28;20224;-83
2022/04/21 12:57:32;;;;;;;5.17;4.63;;;;;;;;;;5053795;28;20244;-83
2022/04/21 13:00:06;;;;;;;4.40;4.00;;;;;;;;;;5053851;28;20717;-83
2022/04/21 13:02:36;;;;;;;6.13;5.63;;;;;;;;;;5053796;28;20610;-83
2022/04/21 13:05:03;;;;;;;26.47;20.60;;;;;;;;;;5053980;28;20235;-83
2022/04/21 13:07:31;;;;;;;12.13;9.03;;;;;;;;;;5053637;28;20297;-83
2022/04/21 13:09:59;;;;;;;4.40;4.00;;;;;;;;;;5053625;28;20241;-83
2022/04/21 13:12:26;;;;;;;34.97;23.70;;;;;;;;;;5053787;28;20190;-83
2022/04/21 13:14:55;;;;;;;12.07;10.00;;;;;;;;;;5053702;28;20284;-83
2022/04/21 13:17:22;;;;;;;21.27;14.87;;;;;;;;;;5053504;28;20705;-83
2022/04/21 13:19:55;;;;;;;6.80;6.17;;;;;;;;;;5053357;28;20288;-83
2022/04/21 13:22:21;;;;;;;10.63;8.80;;;;;;;;;;5053719;28;20630;-83
2022/04/21 13:24:49;;;;;;;14.80;10.87;;;;;;;;;;5053267;28;20233;-84
2022/04/21 13:27:16;;;;;;;12.60;9.90;;;;;;;;;;5053593;28;20285;-84
2022/04/21 13:29:44;;;;;;;8.87;7.87;;;;;;;;;;5052855;28;20201;-83
2022/04/21 13:35:03;;;;;;;34.00;22.03;;;;;;;;;;5053284;28;20300;-83
2022/04/21 13:37:30;;;;;;;10.67;6.90;;;;;;;;;;5053159;28;20312;-83
2022/04/21 13:39:57;;;;;;;32.57;18.90;;;;;;;;;;5052885;28;20745;-83
2022/04/21 13:42:25;;;;;;;14.43;10.30;;;;;;;;;;5053505;28;20593;-83
2022/04/21 13:44:55;;;;;;;12.10;8.73;;;;;;;;;;5052753;28;20284;-83
2022/04/21 13:47:24;;;;;;;11.07;8.13;;;;;;;;;;5053050;28;20277;-83
2022/04/21 13:49:51;;;;;;;6.67;5.13;;;;;;;;;;5051723;28;20297;-83
2022/04/21 13:52:18;;;;;;;17.83;11.00;;;;;;;;;;5053323;28;20210;-83
2022/04/21 13:54:57;;;;;;;6.37;5.47;;;;;;;;;;5052867;28;20289;-83
2022/04/21 13:57:24;;;;;;;57.33;33.80;;;;;;;;;;5052745;28;20223;-83
2022/04/21 13:59:54;;;;;;;10.13;7.43;;;;;;;;;;5052820;28;20202;-84
2022/04/21 14:02:26;;;;;;;12.73;11.37;;;;;;;;;;5052653;28;20232;-83
2022/04/21 14:04:53;;;;;;;12.13;10.37;;;;;;;;;;5052751;28;20229;-83
2022/04/21 14:07:20;;;;;;;12.00;9.33;;;;;;;;;;5053161;28;20249;-83
2022/04/21 14:09:47;;;;;;;24.23;16.97;;;;;;;;;;5052268;28;20198;-83
2022/04/21 14:12:18;;;;;;;52.43;34.30;;;;;;;;;;5052918;28;20243;-83
2022/04/21 14:14:45;;;;;;;44.47;29.57;;;;;;;;;;5052555;28;20233;-83
2022/04/21 14:17:13;;;;;;;7.57;6.87;;;;;;;;;;5052621;28;20285;-83
2022/04/21 14:19:44;;;;;;;5.73;5.23;;;;;;;;;;5052493;28;20226;-83
2022/04/21 14:22:12;;;;;;;4.47;3.97;;;;;;;;;;5052501;28;20205;-83
2022/04/21 14:24:39;;;;;;;4.53;4.23;;;;;;;;;;5052027;28;20661;-83
2022/04/21 14:27:06;;;;;;;4.40;4.10;;;;;;;;;;5052458;28;20237;-83
2022/04/21 14:29:33;;;;;;;5.27;4.90;;;;;;;;;;5052026;28;20291;-83
2022/04/21 14:32:01;;;;;;;6.57;6.07;;;;;;;;;;5052319;28;20200;-83
2022/04/21 14:34:29;;;;;;;5.60;5.10;;;;;;;;;;5052158;28;20198;-83
2022/04/21 14:36:59;;;;;;;6.90;6.20;;;;;;;;;;5052446;28;20230;-83
2022/04/21 14:45:05;;;;;;;8.10;7.20;;;;;;;;;;5052050;28;20670;-83
2022/04/21 14:47:33;;;;;;;6.67;5.63;;;;;;;;;;5052116;28;20216;-83
2022/04/21 14:50:02;;;;;;;3.87;3.40;;;;;;;;;;5051768;28;20744;-83
2022/04/21 14:52:30;;;;;;;9.53;7.50;;;;;;;;;;5051907;28;20224;-83
2022/04/21 14:54:59;;;;;;;4.53;4.10;;;;;;;;;;5052075;28;20225;-83
2022/04/21 14:57:26;;;;;;;6.17;4.80;;;;;;;;;;5051447;28;20235;-83
2022/04/21 14:59:53;;;;;;;5.77;5.17;;;;;;;;;;5051429;28;20669;-82
2022/04/21 15:02:33;;;;;;;6.90;6.20;;;;;;;;;;5051811;28;20233;-83
2022/04/21 15:05:00;;;;;;;6.53;5.67;;;;;;;;;;5051959;28;20591;-83
2022/04/21 15:07:27;;;;;;;6.87;5.53;;;;;;;;;;5051594;28;20292;-83
2022/04/21 15:10:03;;;;;;;5.13;4.43;;;;;;;;;;5051527;28;20201;-83
2022/04/21 15:12:35;;;;;;;3.13;2.90;;;;;;;;;;5052050;28;20639;-83
2022/04/21 15:15:02;;;;;;;9.97;5.87;;;;;;;;;;5051639;28;20280;-83
2022/04/21 15:17:45;;;;;;;7.50;5.80;;;;;;;;;;5051652;28;20204;-83
2022/04/21 15:20:12;;;;;;;5.67;5.13;;;;;;;;;;5051788;28;20641;-83
2022/04/21 15:22:39;;;;;;;8.77;5.90;;;;;;;;;;5051593;28;20197;-83
2022/04/21 15:25:09;;;;;;;5.50;4.87;;;;;;;;;;5051050;28;20229;-83
2022/04/21 15:27:36;;;;;;;5.77;3.70;;;;;;;;;;5051508;28;20285;-83
2022/04/21 15:30:04;;;;;;;8.00;5.47;;;;;;;;;;5051696;28;20688;-83
2022/04/21 15:32:31;;;;;;;8.43;6.00;;;;;;;;;;5051525;28;20229;-83
2022/04/21 15:34:59;;;;;;;3.07;2.77;;;;;;;;;;5051092;28;20207;-83
2022/04/21 15:37:35;;;;;;;12.87;10.23;;;;;;;;;;5051227;28;20208;-83
2022/04/21 15:40:04;;;;;;;24.53;19.27;;;;;;;;;;5051354;28;20655;-83
2022/04/21 15:42:33;;;;;;;30.57;21.13;;;;;;;;;;5051585;28;20236;-83
2022/04/21 15:45:00;;;;;;;11.90;8.83;;;;;;;;;;5051030;28;20748;-83
2022/04/21 15:47:27;;;;;;;16.67;13.23;;;;;;;;;;5051406;28;20194;-83
2022/04/21 15:49:54;;;;;;;5.37;4.87;;;;;;;;;;5051472;28;20280;-83
2022/04/21 15:52:21;;;;;;;34.03;24.87;;;;;;;;;;5051356;28;20208;-83
2022/04/21 16:00:22;;;;;;;6.13;4.83;;;;;;;;;;5051357;28;20288;-83
2022/04/21 16:02:50;;;;;;;10.93;7.40;;;;;;;;;;5051063;28;20264;-83
2022/04/21 16:05:17;;;;;;;13.00;11.23;;;;;;;;;;5051313;28;20220;-84